Time;durP1;ratioP1;P1;durP2;ratioP2;P2;SDS_P1;SDS_P2;PMS_P1;PMS_P2;Temp;Humidity;BMP_temperature;BMP_pressure;BME280_temperature;BME280_humidity;BME280_pressure;Samples;Min_cycle;Max_cycle;Signal;HPM_P1;HPM_P2
2020/12/04 00:01:36;;;;;;;27.98;13.25;;;2.50;84.90;;;;;;5038602;28;20036;-75
2020/12/04 00:04:03;;;;;;;26.70;12.10;;;2.50;84.80;;;;;;5041300;28;20048;-76
2020/12/04 00:06:29;;;;;;;29.63;13.93;;;2.50;84.80;;;;;;5037913;28;20056;-76
2020/12/04 00:08:55;;;;;;;26.17;12.40;;;2.50;84.70;;;;;;5035848;28;20053;-76
2020/12/04 00:11:21;;;;;;;25.40;11.98;;;2.50;84.50;;;;;;5031453;28;20025;-76
2020/12/04 00:13:47;;;;;;;25.15;12.73;;;2.50;84.10;;;;;;5036399;28;20030;-75
2020/12/04 00:16:12;;;;;;;26.13;12.70;;;2.50;84.50;;;;;;5037213;28;20093;-75
2020/12/04 00:18:38;;;;;;;27.58;12.57;;;2.50;84.40;;;;;;5035362;28;20032;-76
2020/12/04 00:21:03;;;;;;;25.83;12.18;;;2.50;84.20;;;;;;5038700;28;20021;-76
2020/12/04 00:23:29;;;;;;;28.42;12.48;;;2.50;84.30;;;;;;5024440;28;20072;-76
2020/12/04 00:25:55;;;;;;;26.58;13.18;;;2.50;84.10;;;;;;5038428;28;20025;-76
2020/12/04 00:28:21;;;;;;;23.98;12.05;;;2.50;84.00;;;;;;5031046;28;20032;-76
2020/12/04 00:30:46;;;;;;;29.17;13.63;;;2.50;83.70;;;;;;5038404;28;20068;-76
2020/12/04 00:33:12;;;;;;;28.00;12.88;;;2.50;83.70;;;;;;5037481;28;20083;-76
2020/12/04 00:35:38;;;;;;;27.88;13.20;;;2.50;83.80;;;;;;5028715;28;20445;-76
2020/12/04 00:38:04;;;;;;;27.00;13.00;;;2.50;83.60;;;;;;5038446;28;20120;-76
2020/12/04 00:40:30;;;;;;;25.73;13.38;;;2.50;83.80;;;;;;5025950;28;20479;-76
2020/12/04 00:42:56;;;;;;;22.92;12.80;;;2.50;83.50;;;;;;5040756;28;20029;-76
2020/12/04 00:45:23;;;;;;;27.23;12.50;;;2.50;83.30;;;;;;5037186;28;20021;-76
2020/12/04 00:47:49;;;;;;;26.30;13.27;;;2.50;83.20;;;;;;5052615;28;20077;-76
2020/12/04 00:50:15;;;;;;;26.05;12.80;;;2.50;83.30;;;;;;5019862;28;20496;-76
2020/12/04 00:52:40;;;;;;;29.73;13.55;;;2.50;83.30;;;;;;5037063;28;20532;-76
2020/12/04 00:55:06;;;;;;;27.48;12.75;;;2.50;83.60;;;;;;5045936;28;20036;-76
2020/12/04 00:57:32;;;;;;;25.15;12.55;;;2.50;83.30;;;;;;5038465;28;20449;-76
2020/12/04 00:59:57;;;;;;;26.27;13.35;;;2.50;83.00;;;;;;5038573;28;20021;-76
2020/12/04 01:02:23;;;;;;;29.10;13.80;;;2.50;83.20;;;;;;5036077;28;20152;-76
2020/12/04 01:04:49;;;;;;;26.30;12.35;;;2.50;82.90;;;;;;5039514;28;20024;-76
2020/12/04 01:07:14;;;;;;;25.30;12.50;;;2.40;83.30;;;;;;5046747;28;20065;-75
2020/12/04 01:09:40;;;;;;;25.35;11.98;;;2.40;83.40;;;;;;5036480;28;20022;-75
2020/12/04 01:12:06;;;;;;;26.38;12.80;;;2.40;82.80;;;;;;5037359;28;20408;-76
2020/12/04 01:14:32;;;;;;;24.45;12.35;;;2.40;83.10;;;;;;5036379;28;20326;-76
2020/12/04 01:16:57;;;;;;;26.05;12.23;;;2.40;82.90;;;;;;5037991;28;20033;-76
2020/12/04 01:19:23;;;;;;;22.48;11.70;;;2.40;82.90;;;;;;5036156;28;20484;-76
2020/12/04 01:21:52;;;;;;;25.02;11.82;;;2.40;82.70;;;;;;5041287;28;20029;-76
2020/12/04 01:24:17;;;;;;;25.83;12.25;;;2.30;82.80;;;;;;5043746;28;20038;-76
2020/12/04 01:26:43;;;;;;;26.50;12.25;;;2.30;82.50;;;;;;5036017;28;20036;-76
2020/12/04 01:29:09;;;;;;;25.67;13.10;;;2.30;82.20;;;;;;5022309;28;20082;-76
2020/12/04 01:31:35;;;;;;;25.30;12.55;;;2.30;82.00;;;;;;5042703;28;20040;-76
2020/12/04 01:34:00;;;;;;;25.75;12.20;;;2.20;82.20;;;;;;5020196;28;20109;-76
2020/12/04 01:36:27;;;;;;;26.63;13.20;;;2.20;82.30;;;;;;5036289;28;20051;-76
2020/12/04 01:38:53;;;;;;;26.90;12.55;;;2.20;82.20;;;;;;5037034;28;20029;-76
2020/12/04 01:41:19;;;;;;;25.08;12.18;;;2.20;82.30;;;;;;5036975;28;20020;-76
2020/12/04 01:43:45;;;;;;;24.83;12.55;;;2.10;82.50;;;;;;5038156;28;20116;-76
2020/12/04 01:46:13;;;;;;;26.63;12.75;;;2.10;82.60;;;;;;5020161;28;20025;-76
2020/12/04 01:48:38;;;;;;;25.50;12.02;;;2.10;81.80;;;;;;5027722;28;20029;-76
2020/12/04 01:51:04;;;;;;;24.40;11.90;;;2.10;82.00;;;;;;5019639;28;20029;-75
2020/12/04 01:53:30;;;;;;;27.38;13.32;;;2.10;82.00;;;;;;5021426;28;20091;-76
2020/12/04 01:55:56;;;;;;;28.88;12.88;;;2.10;82.00;;;;;;5038598;28;20036;-76
2020/12/04 01:58:21;;;;;;;25.30;12.55;;;2.10;81.60;;;;;;5068796;22;20048;-79
2020/12/04 02:00:47;;;;;;;24.98;12.63;;;2.10;81.80;;;;;;5007414;28;20037;-78
2020/12/04 02:03:14;;;;;;;28.20;12.40;;;2.00;81.40;;;;;;5011072;28;20121;-79
2020/12/04 02:05:54;;;;;;;29.48;13.05;;;2.00;81.00;;;;;;5026439;28;20025;-79
2020/12/04 02:08:36;;;;;;;25.17;12.38;;;1.90;81.10;;;;;;5005230;28;20038;-79
2020/12/04 02:11:20;;;;;;;26.38;12.13;;;1.90;81.20;;;;;;4989693;28;20029;-78
2020/12/04 02:13:49;;;;;;;29.00;13.68;;;1.90;81.00;;;;;;5004838;28;20034;-78
2020/12/04 02:16:19;;;;;;;25.95;11.68;;;1.90;80.80;;;;;;5006738;28;20034;-78
2020/12/04 02:18:46;;;;;;;26.27;12.75;;;1.90;80.50;;;;;;5021850;28;20172;-79
2020/12/04 02:21:15;;;;;;;25.10;12.18;;;1.90;81.10;;;;;;5022783;28;20033;-78
2020/12/04 02:23:45;;;;;;;29.45;13.63;;;1.90;80.80;;;;;;5004470;28;20075;-79
2020/12/04 02:26:13;;;;;;;26.67;12.32;;;1.80;80.80;;;;;;5021608;28;20109;-78
2020/12/04 02:28:39;;;;;;;28.17;12.23;;;1.80;80.50;;;;;;5004039;28;20484;-78
2020/12/04 02:31:06;;;;;;;29.55;13.05;;;1.80;80.60;;;;;;5003591;28;20087;-78
2020/12/04 02:33:32;;;;;;;27.77;11.98;;;1.80;80.00;;;;;;5005328;28;20034;-79
2020/12/04 02:35:58;;;;;;;27.27;12.68;;;1.70;80.50;;;;;;5006381;28;20032;-78
2020/12/04 02:38:25;;;;;;;29.15;12.80;;;1.70;81.00;;;;;;5009419;28;20113;-79
2020/12/04 02:40:52;;;;;;;27.55;13.18;;;1.60;80.70;;;;;;5022725;28;20519;-79
2020/12/04 02:43:19;;;;;;;29.83;13.25;;;1.60;80.60;;;;;;5008404;28;20109;-78
2020/12/04 02:45:45;;;;;;;31.52;13.35;;;1.60;81.10;;;;;;5007195;28;20034;-79
2020/12/04 02:48:11;;;;;;;30.00;13.63;;;1.60;81.10;;;;;;5010531;28;20516;-79
2020/12/04 02:50:37;;;;;;;33.00;14.32;;;1.50;80.70;;;;;;5004662;28;20381;-79
2020/12/04 02:53:04;;;;;;;32.28;12.90;;;1.50;81.00;;;;;;5023845;28;20037;-78
2020/12/04 02:55:29;;;;;;;29.02;13.45;;;1.50;80.90;;;;;;5007100;28;20129;-78
2020/12/04 02:57:55;;;;;;;26.83;13.30;;;1.50;81.00;;;;;;5006380;28;20731;-79
2020/12/04 03:00:21;;;;;;;27.48;13.73;;;1.50;80.70;;;;;;5023685;28;20043;-78
2020/12/04 03:02:46;;;;;;;30.48;13.30;;;1.50;80.90;;;;;;5023519;28;20048;-77
2020/12/04 03:05:12;;;;;;;30.67;12.38;;;1.50;80.90;;;;;;5007636;28;20030;-79
2020/12/04 03:07:38;;;;;;;31.75;14.65;;;1.50;80.70;;;;;;5007909;28;20044;-78
2020/12/04 03:10:05;;;;;;;28.90;13.45;;;1.40;80.70;;;;;;5006592;28;20025;-78
2020/12/04 03:12:32;;;;;;;30.30;13.65;;;1.50;81.10;;;;;;5023167;28;20392;-78
2020/12/04 03:15:00;;;;;;;32.22;15.00;;;1.50;80.30;;;;;;5005795;28;20040;-79
2020/12/04 03:17:27;;;;;;;29.73;13.35;;;1.40;80.30;;;;;;5004906;28;20363;-79
2020/12/04 03:19:53;;;;;;;38.67;15.00;;;1.40;80.70;;;;;;5002898;28;20038;-78
2020/12/04 03:22:19;;;;;;;32.42;14.38;;;1.40;80.60;;;;;;5006529;28;20109;-78
2020/12/04 03:24:45;;;;;;;33.65;14.38;;;1.40;80.60;;;;;;5005832;28;20072;-77
2020/12/04 03:27:10;;;;;;;33.45;13.98;;;1.40;80.60;;;;;;5009354;28;20049;-79
2020/12/04 03:29:36;;;;;;;32.20;14.27;;;1.40;80.80;;;;;;5005002;28;20032;-79
2020/12/04 03:32:02;;;;;;;32.90;14.60;;;1.40;80.70;;;;;;5004221;28;20030;-78
2020/12/04 03:34:27;;;;;;;33.03;13.75;;;1.40;80.90;;;;;;5025210;28;20488;-78
2020/12/04 03:36:53;;;;;;;32.40;14.73;;;1.30;80.70;;;;;;5009114;28;20064;-78
2020/12/04 03:39:19;;;;;;;29.63;13.65;;;1.30;80.50;;;;;;5007548;28;20034;-79
2020/12/04 03:41:44;;;;;;;29.73;13.52;;;1.40;81.00;;;;;;5006902;28;20512;-78
2020/12/04 03:44:10;;;;;;;35.53;15.95;;;1.40;80.70;;;;;;4991466;28;20050;-78
2020/12/04 03:46:36;;;;;;;33.22;14.73;;;1.30;80.50;;;;;;5023866;28;20072;-79
2020/12/04 03:49:01;;;;;;;34.05;14.35;;;1.30;80.40;;;;;;5006074;28;20021;-78
2020/12/04 03:51:27;;;;;;;27.50;13.07;;;1.30;80.70;;;;;;5022772;28;20029;-77
2020/12/04 03:53:53;;;;;;;29.30;13.18;;;1.30;80.90;;;;;;5007935;28;20573;-77
2020/12/04 03:56:18;;;;;;;30.67;14.10;;;1.30;80.90;;;;;;5023496;28;20030;-80
2020/12/04 03:58:44;;;;;;;30.90;14.13;;;1.30;80.70;;;;;;5008860;28;20045;-79
2020/12/04 04:01:11;;;;;;;31.80;14.38;;;1.30;80.80;;;;;;5004370;28;20027;-78
2020/12/04 04:03:37;;;;;;;30.42;14.52;;;1.30;80.50;;;;;;5024789;28;20018;-79
2020/12/04 04:06:02;;;;;;;31.25;13.82;;;1.30;80.60;;;;;;5010795;28;20036;-78
2020/12/04 04:08:28;;;;;;;29.58;13.40;;;1.20;81.00;;;;;;5017994;28;20064;-76
2020/12/04 04:10:54;;;;;;;29.63;13.65;;;1.20;81.00;;;;;;5008673;28;20032;-79
2020/12/04 04:13:19;;;;;;;31.88;14.10;;;1.20;80.90;;;;;;5023146;28;20033;-78
2020/12/04 04:15:45;;;;;;;28.15;13.38;;;1.20;80.90;;;;;;4991326;28;20037;-79
2020/12/04 04:18:11;;;;;;;29.90;13.30;;;1.20;81.10;;;;;;5021706;28;20026;-79
2020/12/04 04:20:36;;;;;;;32.47;13.27;;;1.30;80.70;;;;;;4990173;28;20532;-79
2020/12/04 04:23:02;;;;;;;33.22;14.25;;;1.30;81.00;;;;;;5019534;28;20038;-79
2020/12/04 04:25:28;;;;;;;31.95;13.93;;;1.30;81.00;;;;;;5005623;28;20026;-78
2020/12/04 04:27:53;;;;;;;30.00;13.55;;;1.30;81.00;;;;;;4990490;28;20049;-79
2020/12/04 04:30:19;;;;;;;31.27;13.73;;;1.20;80.80;;;;;;5008219;28;20486;-79
2020/12/04 04:32:45;;;;;;;30.20;13.02;;;1.20;81.10;;;;;;5005511;28;20083;-79
2020/12/04 04:35:10;;;;;;;29.17;13.73;;;1.20;81.10;;;;;;5007780;28;20401;-79
2020/12/04 04:37:36;;;;;;;29.15;13.50;;;1.20;80.80;;;;;;5003785;28;20030;-77
2020/12/04 04:40:03;;;;;;;29.65;12.75;;;1.30;81.00;;;;;;5006512;28;20041;-78
2020/12/04 04:42:29;;;;;;;29.05;14.10;;;1.30;80.90;;;;;;5004865;28;20036;-79
2020/12/04 04:44:56;;;;;;;27.27;13.88;;;1.20;80.90;;;;;;4990676;28;20108;-78
2020/12/04 04:47:28;;;;;;;27.48;13.02;;;1.30;80.80;;;;;;5003877;28;20036;-79
2020/12/04 04:49:54;;;;;;;33.42;14.32;;;1.30;80.60;;;;;;5006354;28;20036;-78
2020/12/04 04:52:20;;;;;;;34.88;16.38;;;1.30;80.80;;;;;;4990037;28;20029;-79
2020/12/04 04:54:48;;;;;;;28.85;13.45;;;1.30;81.00;;;;;;5022362;28;20032;-79
2020/12/04 04:57:18;;;;;;;28.63;13.25;;;1.30;81.00;;;;;;5007577;28;20029;-78
2020/12/04 04:59:44;;;;;;;27.02;13.38;;;1.30;80.90;;;;;;5004515;28;20037;-78
2020/12/04 05:02:14;;;;;;;26.58;12.82;;;1.30;80.60;;;;;;5000681;28;20076;-79
2020/12/04 05:05:06;;;;;;;28.48;12.52;;;1.30;80.90;;;;;;5002924;28;20160;-78
2020/12/04 05:07:34;;;;;;;28.27;12.45;;;1.30;80.80;;;;;;5006623;28;20045;-79
2020/12/04 05:10:13;;;;;;;28.63;13.30;;;1.30;80.90;;;;;;5009250;28;20351;-77
2020/12/04 05:12:40;;;;;;;30.75;13.40;;;1.30;81.00;;;;;;5007763;28;20033;-79
2020/12/04 05:15:26;;;;;;;28.67;12.23;;;1.30;81.10;;;;;;5021321;28;20040;-79
2020/12/04 05:18:03;;;;;;;25.30;13.40;;;1.30;81.00;;;;;;5004531;28;20465;-80
2020/12/04 05:20:30;;;;;;;26.98;12.70;;;1.30;81.10;;;;;;4986479;28;20032;-78
2020/12/04 05:22:58;;;;;;;29.38;13.98;;;1.30;81.00;;;;;;5006289;28;20046;-79
2020/12/04 05:25:24;;;;;;;29.48;13.95;;;1.30;80.70;;;;;;5003732;28;20024;-78
2020/12/04 05:27:50;;;;;;;25.88;12.18;;;1.30;80.70;;;;;;5003104;28;20493;-78
2020/12/04 05:30:25;;;;;;;30.30;13.43;;;1.30;80.90;;;;;;5001331;28;20080;-78
2020/12/04 05:33:05;;;;;;;30.60;14.45;;;1.30;80.80;;;;;;5001294;28;20033;-78
2020/12/04 05:35:31;;;;;;;30.40;13.15;;;1.30;80.80;;;;;;5002952;28;20033;-79
2020/12/04 05:38:07;;;;;;;26.42;13.60;;;1.30;80.70;;;;;;5021845;28;20037;-79
2020/12/04 05:40:35;;;;;;;27.50;12.20;;;1.30;80.60;;;;;;5002636;28;20115;-79
2020/12/04 05:43:01;;;;;;;30.27;13.88;;;1.30;80.90;;;;;;5022252;28;20065;-79
2020/12/04 05:45:26;;;;;;;28.88;13.57;;;1.30;81.10;;;;;;5019577;28;20021;-79
2020/12/04 05:47:52;;;;;;;31.30;14.23;;;1.30;81.60;;;;;;5003386;28;20101;-79
2020/12/04 05:50:18;;;;;;;28.10;13.25;;;1.30;82.00;;;;;;5021492;28;20025;-78
2020/12/04 05:52:48;;;;;;;29.02;13.82;;;1.30;82.10;;;;;;5005918;28;20048;-79
2020/12/04 05:55:15;;;;;;;29.83;14.27;;;1.30;82.10;;;;;;5027664;28;20034;-79
2020/12/04 05:57:59;;;;;;;32.92;14.25;;;1.30;82.10;;;;;;5007588;28;20432;-78
2020/12/04 06:00:26;;;;;;;29.52;14.32;;;1.50;82.40;;;;;;5000788;28;20029;-78
2020/12/04 06:02:56;;;;;;;30.23;14.23;;;1.50;81.70;;;;;;4997909;28;20038;-78
2020/12/04 06:05:25;;;;;;;29.42;14.02;;;1.50;82.00;;;;;;5023111;28;20037;-80
2020/12/04 06:07:53;;;;;;;30.00;13.68;;;1.40;82.00;;;;;;4989639;28;20022;-79
2020/12/04 06:10:18;;;;;;;29.65;13.48;;;1.40;82.00;;;;;;5005962;28;20017;-80
2020/12/04 06:12:52;;;;;;;31.63;14.75;;;1.40;82.30;;;;;;5008323;28;20042;-80
2020/12/04 06:15:28;;;;;;;30.13;14.57;;;1.40;82.30;;;;;;5004905;28;20060;-78
2020/12/04 06:18:08;;;;;;;32.13;15.05;;;1.40;82.20;;;;;;5010252;28;20049;-81
2020/12/04 06:20:41;;;;;;;31.30;15.05;;;1.50;82.00;;;;;;5009012;28;20036;-78
2020/12/04 06:23:12;;;;;;;30.27;14.13;;;1.40;82.10;;;;;;5020161;28;20088;-79
2020/12/04 06:25:53;;;;;;;33.92;14.88;;;1.40;82.20;;;;;;5030866;28;20072;-79
2020/12/04 06:28:24;;;;;;;37.65;16.10;;;1.40;82.70;;;;;;5001600;28;20030;-79
2020/12/04 06:31:13;;;;;;;35.00;15.63;;;1.40;82.60;;;;;;4996206;28;20026;-79
2020/12/04 06:33:43;;;;;;;34.30;14.48;;;1.40;82.60;;;;;;5018493;28;20108;-80
2020/12/04 06:36:30;;;;;;;33.50;15.30;;;1.40;82.70;;;;;;4997217;28;20406;-77
2020/12/04 06:38:57;;;;;;;33.33;15.07;;;1.40;82.80;;;;;;5014331;28;20089;-80
2020/12/04 06:41:24;;;;;;;32.70;15.40;;;1.40;83.10;;;;;;4994969;28;20026;-79
2020/12/04 06:43:52;;;;;;;33.38;15.50;;;1.40;82.90;;;;;;5025106;28;20117;-79
2020/12/04 06:46:48;;;;;;;33.97;16.45;;;1.40;82.80;;;;;;5006571;28;20033;-77
2020/12/04 06:52:15;;;;;;;33.10;15.30;;;1.50;83.00;;;;;;5014934;28;20033;-79
2020/12/04 06:54:45;;;;;;;35.10;16.63;;;1.40;83.10;;;;;;4986205;28;20037;-77
2020/12/04 06:57:11;;;;;;;29.42;14.65;;;1.50;83.20;;;;;;5002392;28;20053;-77
2020/12/04 06:59:39;;;;;;;32.83;15.07;;;1.50;83.30;;;;;;5019619;28;20033;-77
2020/12/04 07:02:12;;;;;;;36.13;15.88;;;1.50;83.10;;;;;;5001761;28;20034;-77
2020/12/04 07:04:49;;;;;;;35.20;15.52;;;1.50;82.80;;;;;;4991244;28;20566;-77
2020/12/04 07:07:18;;;;;;;34.92;16.35;;;1.50;82.80;;;;;;4985123;28;20121;-76
2020/12/04 07:09:58;;;;;;;37.47;15.65;;;1.50;83.00;;;;;;5008236;28;20108;-76
2020/12/04 07:12:26;;;;;;;37.95;16.90;;;1.50;83.30;;;;;;4987709;28;20098;-76
2020/12/04 07:14:54;;;;;;;35.95;16.80;;;1.50;83.20;;;;;;4996157;28;20687;-79
2020/12/04 07:17:24;;;;;;;35.55;16.80;;;1.50;83.10;;;;;;5010919;28;20450;-77
2020/12/04 07:19:52;;;;;;;36.08;16.85;;;1.50;83.10;;;;;;5017284;28;20471;-78
2020/12/04 07:22:18;;;;;;;33.58;15.52;;;1.50;83.20;;;;;;5001521;28;20026;-77
2020/12/04 07:24:45;;;;;;;34.15;16.70;;;1.60;83.30;;;;;;5012889;28;20032;-78
2020/12/04 07:27:16;;;;;;;38.22;16.85;;;1.60;83.30;;;;;;4995876;28;20615;-77
2020/12/04 07:29:45;;;;;;;34.38;16.42;;;1.60;83.20;;;;;;4990246;28;20159;-76
2020/12/04 07:32:12;;;;;;;33.35;15.15;;;1.50;83.40;;;;;;5009294;28;20053;-79
2020/12/04 07:34:38;;;;;;;37.42;16.35;;;1.60;83.60;;;;;;4994429;28;20037;-77
2020/12/04 07:37:06;;;;;;;36.47;16.25;;;1.60;83.40;;;;;;4986676;28;20025;-77
2020/12/04 07:39:34;;;;;;;35.17;16.52;;;1.60;83.90;;;;;;4975083;28;20038;-79
2020/12/04 07:42:02;;;;;;;37.42;16.90;;;1.60;83.30;;;;;;5009402;28;21364;-79
2020/12/04 07:44:31;;;;;;;34.63;15.75;;;1.60;83.30;;;;;;5002620;28;20018;-79
2020/12/04 07:47:11;;;;;;;37.90;17.27;;;1.60;83.50;;;;;;5013938;28;20109;-79
2020/12/04 07:49:45;;;;;;;36.72;17.13;;;1.60;83.40;;;;;;5016616;28;20014;-78
2020/12/04 07:52:24;;;;;;;34.47;16.10;;;1.60;83.40;;;;;;5001274;28;20045;-79
2020/12/04 07:55:00;;;;;;;38.22;15.93;;;1.60;83.50;;;;;;5001574;28;20033;-79
2020/12/04 07:57:46;;;;;;;39.40;17.38;;;1.60;83.60;;;;;;5001908;28;20468;-78
2020/12/04 08:00:14;;;;;;;35.45;15.75;;;1.60;83.50;;;;;;5068443;23;20040;-75
2020/12/04 08:02:40;;;;;;;35.88;16.80;;;1.60;83.30;;;;;;5041531;28;20041;-76
2020/12/04 08:05:07;;;;;;;37.60;17.48;;;1.60;83.50;;;;;;5050996;28;20029;-78
2020/12/04 08:07:33;;;;;;;33.45;15.48;;;1.60;83.60;;;;;;5031850;28;20032;-77
2020/12/04 08:09:59;;;;;;;36.92;17.20;;;1.70;83.10;;;;;;5081485;28;20074;-77
2020/12/04 08:12:31;;;;;;;35.30;16.45;;;1.70;83.10;;;;;;5048708;28;20112;-76
2020/12/04 08:14:58;;;;;;;35.95;16.48;;;1.70;83.40;;;;;;5050782;28;20402;-76
2020/12/04 08:17:26;;;;;;;34.22;16.23;;;1.60;83.30;;;;;;5067383;28;20027;-77
2020/12/04 08:19:53;;;;;;;37.63;16.20;;;1.60;83.50;;;;;;5064294;28;20057;-76
2020/12/04 08:22:48;;;;;;;37.75;17.50;;;1.60;83.50;;;;;;5065023;28;20111;-74
2020/12/04 08:25:14;;;;;;;35.03;16.42;;;1.60;83.50;;;;;;5070325;28;20463;-76
2020/12/04 08:27:45;;;;;;;36.53;15.95;;;1.60;83.40;;;;;;5061455;28;20119;-75
2020/12/04 08:30:18;;;;;;;36.80;16.08;;;1.70;83.20;;;;;;5049321;28;20030;-75
2020/12/04 08:32:45;;;;;;;32.95;15.30;;;1.70;83.20;;;;;;5060739;28;20042;-75
2020/12/04 08:35:18;;;;;;;33.85;15.73;;;1.70;82.90;;;;;;5066673;28;20025;-75
2020/12/04 08:37:45;;;;;;;34.00;15.07;;;1.70;83.00;;;;;;5066542;28;20434;-75
2020/12/04 08:40:31;;;;;;;33.55;15.82;;;1.70;83.30;;;;;;5047593;28;20024;-75
2020/12/04 08:43:19;;;;;;;38.50;18.00;;;1.70;83.10;;;;;;5063109;28;20032;-75
2020/12/04 08:45:52;;;;;;;36.95;16.17;;;1.80;82.80;;;;;;5064851;28;20024;-75
2020/12/04 08:48:23;;;;;;;33.67;15.90;;;1.80;82.70;;;;;;5039922;28;20660;-75
2020/12/04 08:51:05;;;;;;;35.00;16.73;;;1.70;82.60;;;;;;5063927;28;20071;-74
2020/12/04 08:53:31;;;;;;;34.33;16.45;;;1.80;82.80;;;;;;5047510;28;20086;-75
2020/12/04 08:55:59;;;;;;;33.72;16.05;;;1.80;82.80;;;;;;5062585;28;20063;-75
2020/12/04 08:58:26;;;;;;;36.45;16.60;;;1.80;82.50;;;;;;5064792;28;20053;-74
2020/12/04 09:00:56;;;;;;;34.50;16.38;;;1.80;82.60;;;;;;5062696;28;20113;-74
2020/12/04 09:03:27;;;;;;;34.03;14.52;;;1.80;82.30;;;;;;5063643;28;20056;-75
2020/12/04 09:05:55;;;;;;;36.55;14.52;;;2.10;89.70;;;;;;5063963;28;20025;-75
2020/12/04 09:08:21;;;;;;;31.23;14.77;;;2.50;88.10;;;;;;5064510;28;20108;-75
2020/12/04 09:10:47;;;;;;;33.97;15.27;;;2.50;80.70;;;;;;5048458;28;20923;-75
2020/12/04 09:13:13;;;;;;;33.40;15.68;;;2.40;81.50;;;;;;5060373;28;20082;-74
2020/12/04 09:15:38;;;;;;;37.47;16.65;;;2.40;81.20;;;;;;5060095;28;20028;-75
2020/12/04 09:18:04;;;;;;;33.67;15.50;;;2.20;81.70;;;;;;5046950;28;20097;-74
2020/12/04 09:20:30;;;;;;;32.83;15.63;;;2.20;82.00;;;;;;5060046;28;20032;-75
2020/12/04 09:22:57;;;;;;;34.97;15.32;;;2.20;81.10;;;;;;5079528;28;20024;-75
2020/12/04 09:25:23;;;;;;;33.83;15.85;;;2.20;81.10;;;;;;5063370;28;20020;-75
2020/12/04 09:27:49;;;;;;;35.13;16.60;;;2.30;83.00;;;;;;5062285;28;20423;-76
2020/12/04 09:30:16;;;;;;;32.70;15.35;;;2.30;81.40;;;;;;5059666;28;20020;-74
2020/12/04 09:32:46;;;;;;;33.83;16.38;;;2.20;81.40;;;;;;5066625;28;20034;-74
2020/12/04 09:35:13;;;;;;;33.00;15.10;;;2.20;81.50;;;;;;5066689;28;20033;-74
2020/12/04 09:37:39;;;;;;;33.83;15.48;;;2.20;81.60;;;;;;5072470;28;20438;-76
2020/12/04 09:40:13;;;;;;;34.95;16.35;;;2.20;81.30;;;;;;5063659;28;20534;-75
2020/12/04 09:42:40;;;;;;;33.70;15.90;;;2.10;81.40;;;;;;5062873;28;20411;-75
2020/12/04 09:45:07;;;;;;;38.53;16.73;;;2.10;81.60;;;;;;5067932;28;20021;-74
2020/12/04 09:47:34;;;;;;;34.90;15.48;;;2.10;81.60;;;;;;5063958;28;20022;-75
2020/12/04 09:50:01;;;;;;;36.17;18.23;;;2.10;81.60;;;;;;5077994;28;21710;-75
2020/12/04 09:52:26;;;;;;;32.72;14.68;;;2.10;81.70;;;;;;5070175;28;20028;-74
2020/12/04 09:54:56;;;;;;;31.05;14.82;;;2.10;81.80;;;;;;5053893;28;20032;-75
2020/12/04 09:57:22;;;;;;;34.60;14.85;;;2.10;81.80;;;;;;5068684;28;20024;-75
2020/12/04 09:59:47;;;;;;;30.85;15.75;;;2.10;82.10;;;;;;5065835;28;20422;-75
2020/12/04 10:02:13;;;;;;;33.20;15.25;;;2.10;81.80;;;;;;5068260;28;20028;-75
2020/12/04 10:04:39;;;;;;;33.92;17.05;;;2.10;82.00;;;;;;5050612;28;20020;-79
2020/12/04 10:07:09;;;;;;;36.47;16.33;;;2.10;82.50;;;;;;5072093;28;20108;-79
2020/12/04 10:09:35;;;;;;;32.53;16.00;;;2.20;81.80;;;;;;5060073;28;20089;-77
2020/12/04 10:12:01;;;;;;;35.15;16.60;;;2.20;81.90;;;;;;5069078;28;20414;-78
2020/12/04 10:14:27;;;;;;;34.38;16.55;;;2.20;82.10;;;;;;5067372;28;20414;-80
2020/12/04 10:16:53;;;;;;;32.10;15.32;;;2.20;82.00;;;;;;5060943;28;20025;-77
2020/12/04 10:19:21;;;;;;;33.50;14.77;;;2.20;82.10;;;;;;5062546;28;20028;-77
2020/12/04 10:21:47;;;;;;;35.45;16.02;;;2.20;82.30;;;;;;5063213;28;20144;-77
2020/12/04 10:24:14;;;;;;;35.53;15.27;;;2.20;82.00;;;;;;5045170;28;20108;-76
2020/12/04 10:26:45;;;;;;;35.47;16.42;;;2.20;82.10;;;;;;5062670;28;20028;-78
2020/12/04 10:29:11;;;;;;;33.10;15.50;;;2.20;82.30;;;;;;5063432;28;20055;-78
2020/12/04 10:31:38;;;;;;;34.03;15.52;;;2.10;82.50;;;;;;5048135;28;20033;-78
2020/12/04 10:34:04;;;;;;;32.67;15.13;;;2.20;82.50;;;;;;5059754;28;20114;-77
2020/12/04 10:36:30;;;;;;;30.77;15.10;;;2.20;82.40;;;;;;5062446;28;20077;-77
2020/12/04 10:39:00;;;;;;;31.92;15.52;;;2.20;82.30;;;;;;5063804;28;20107;-77
2020/12/04 10:41:36;;;;;;;31.50;14.88;;;2.20;82.60;;;;;;5068686;28;20074;-77
2020/12/04 10:44:04;;;;;;;30.33;14.10;;;2.20;82.30;;;;;;5048303;28;20407;-77
2020/12/04 10:46:31;;;;;;;32.00;14.77;;;2.20;82.60;;;;;;5064950;28;20029;-77
2020/12/04 10:48:57;;;;;;;32.67;14.82;;;2.20;82.50;;;;;;5069762;28;20036;-77
2020/12/04 10:51:24;;;;;;;31.05;15.02;;;2.20;82.50;;;;;;5071227;28;20052;-77
2020/12/04 10:53:50;;;;;;;31.30;15.88;;;2.30;82.50;;;;;;5060847;28;20032;-77
2020/12/04 10:56:23;;;;;;;33.33;15.02;;;2.30;82.90;;;;;;5052972;28;20059;-77
2020/12/04 10:58:50;;;;;;;35.80;15.20;;;2.30;82.60;;;;;;5064443;28;20029;-76
2020/12/04 11:01:25;;;;;;;33.45;15.57;;;2.50;85.40;;;;;;5047225;28;20032;-77
2020/12/04 11:06:21;;;;;;;35.97;16.42;;;2.50;82.10;;;;;;5059260;28;20114;-77
2020/12/04 11:08:48;;;;;;;35.75;15.90;;;2.50;82.20;;;;;;5045695;28;20021;-76
2020/12/04 11:11:15;;;;;;;33.72;16.15;;;2.50;82.20;;;;;;5067778;28;20111;-77
2020/12/04 11:13:42;;;;;;;35.00;16.58;;;2.50;82.60;;;;;;5050708;28;20074;-77
2020/12/04 11:16:09;;;;;;;37.40;15.95;;;2.50;82.80;;;;;;5084301;28;20128;-77
2020/12/04 11:18:34;;;;;;;34.10;16.27;;;2.50;83.00;;;;;;5050774;28;20033;-77
2020/12/04 11:21:00;;;;;;;37.22;16.38;;;2.50;82.80;;;;;;5048619;28;20029;-77
2020/12/04 11:23:26;;;;;;;35.85;16.23;;;2.50;83.00;;;;;;5066893;28;20024;-78
2020/12/04 11:25:52;;;;;;;36.85;16.05;;;2.50;83.10;;;;;;5062833;28;20063;-78
2020/12/04 11:28:17;;;;;;;35.70;16.27;;;2.50;83.50;;;;;;5067569;28;20060;-77
2020/12/04 11:30:43;;;;;;;36.35;16.33;;;2.50;83.30;;;;;;5046230;28;20093;-77
2020/12/04 11:33:09;;;;;;;32.20;16.45;;;2.60;83.40;;;;;;5068733;28;20054;-77
2020/12/04 11:35:35;;;;;;;35.35;15.40;;;2.60;83.60;;;;;;5068226;28;20029;-77
2020/12/04 11:38:01;;;;;;;33.85;16.40;;;2.60;83.60;;;;;;5053594;28;20040;-77
2020/12/04 11:40:26;;;;;;;35.63;15.90;;;2.60;83.60;;;;;;5081396;28;20052;-77
2020/12/04 11:42:52;;;;;;;32.03;15.07;;;2.60;83.20;;;;;;5085439;28;20075;-77
2020/12/04 11:45:18;;;;;;;32.65;15.32;;;2.70;83.50;;;;;;5071807;28;20430;-78
2020/12/04 11:47:44;;;;;;;35.38;16.65;;;2.70;83.30;;;;;;5072325;28;20028;-76
2020/12/04 11:50:15;;;;;;;36.55;17.85;;;2.80;83.00;;;;;;5086238;28;20024;-79
2020/12/04 11:52:42;;;;;;;36.40;17.20;;;2.70;82.90;;;;;;5054225;28;20089;-77
2020/12/04 11:55:15;;;;;;;32.90;16.48;;;2.80;82.80;;;;;;5065377;28;20096;-77
2020/12/04 11:57:49;;;;;;;34.05;14.95;;;2.80;82.90;;;;;;5063382;28;20041;-78
2020/12/04 12:00:14;;;;;;;34.67;15.95;;;2.80;82.90;;;;;;5048006;28;20065;-77
2020/12/04 12:02:40;;;;;;;34.65;16.83;;;2.80;82.70;;;;;;5052630;28;20062;-80
2020/12/04 12:05:06;;;;;;;34.22;16.48;;;2.90;82.90;;;;;;5067788;28;20605;-79
2020/12/04 12:07:32;;;;;;;38.20;16.67;;;2.90;82.80;;;;;;5075353;28;20044;-79
2020/12/04 12:09:58;;;;;;;32.28;16.25;;;3.00;83.70;;;;;;5068929;28;20483;-78
2020/12/04 12:12:23;;;;;;;36.15;15.60;;;3.10;82.50;;;;;;5071583;28;20024;-77
2020/12/04 12:14:49;;;;;;;45.63;19.95;;;3.10;82.40;;;;;;5070926;28;20032;-77
2020/12/04 12:17:15;;;;;;;34.13;15.93;;;3.30;87.30;;;;;;5074327;28;20020;-77
2020/12/04 12:19:42;;;;;;;33.47;15.68;;;3.60;82.00;;;;;;5079789;28;20059;-77
2020/12/04 12:22:09;;;;;;;35.80;15.98;;;3.60;81.90;;;;;;5058432;28;20093;-76
2020/12/04 12:24:39;;;;;;;37.75;17.10;;;3.50;81.70;;;;;;5072035;28;20021;-77
2020/12/04 12:27:05;;;;;;;36.15;17.55;;;3.40;81.80;;;;;;5067202;28;20490;-77
2020/12/04 12:29:31;;;;;;;35.70;17.30;;;3.30;82.00;;;;;;5066145;28;20119;-77
2020/12/04 12:31:57;;;;;;;33.13;16.35;;;3.30;82.50;;;;;;5072465;28;20112;-77
2020/12/04 12:34:59;;;;;;;32.60;16.38;;;3.30;82.50;;;;;;5071492;28;20120;-77
2020/12/04 12:37:10;;;;;;;34.10;15.93;;;3.30;82.70;;;;;;5074628;28;20054;-77
2020/12/04 12:39:35;;;;;;;37.65;16.30;;;3.30;82.80;;;;;;5075490;28;20087;-78
2020/12/04 12:42:04;;;;;;;33.17;15.73;;;3.30;82.60;;;;;;5074040;28;20071;-81
2020/12/04 12:44:30;;;;;;;32.08;15.48;;;3.20;82.70;;;;;;5055671;28;20025;-78
2020/12/04 12:46:56;;;;;;;34.78;16.08;;;3.30;82.70;;;;;;5056988;28;20112;-77